sensor_id;sensor_type;location;lat;lon;timestamp;P1;durP1;ratioP1;P2;durP2;ratioP2
72813;SDS011;60945;48.516;-2.768;2022-11-02T00:01:47;11.90;;;2.72;;
72813;SDS011;60945;48.516;-2.768;2022-11-02T00:04:13;14.07;;;2.60;;
72813;SDS011;60945;48.516;-2.768;2022-11-02T00:06:39;12.10;;;3.33;;
72813;SDS011;60945;48.516;-2.768;2022-11-02T00:09:05;15.20;;;2.67;;
72813;SDS011;60945;48.516;-2.768;2022-11-02T00:11:31;12.93;;;2.20;;
72813;SDS011;60945;48.516;-2.768;2022-11-02T00:13:57;15.25;;;2.85;;
72813;SDS011;60945;48.516;-2.768;2022-11-02T00:16:23;13.55;;;3.45;;
72813;SDS011;60945;48.516;-2.768;2022-11-02T00:18:50;12.35;;;2.28;;
72813;SDS011;60945;48.516;-2.768;2022-11-02T00:21:19;8.70;;;2.97;;
72813;SDS011;60945;48.516;-2.768;2022-11-02T00:23:47;13.70;;;3.00;;
72813;SDS011;60945;48.516;-2.768;2022-11-02T00:26:13;10.73;;;2.47;;
72813;SDS011;60945;48.516;-2.768;2022-11-02T00:28:39;11.93;;;2.47;;
72813;SDS011;60945;48.516;-2.768;2022-11-02T00:31:05;8.82;;;2.03;;
72813;SDS011;60945;48.516;-2.768;2022-11-02T00:33:30;14.90;;;2.58;;
72813;SDS011;60945;48.516;-2.768;2022-11-02T00:35:56;10.20;;;2.33;;
72813;SDS011;60945;48.516;-2.768;2022-11-02T00:38:22;14.40;;;3.25;;
72813;SDS011;60945;48.516;-2.768;2022-11-02T00:40:47;12.15;;;3.28;;
72813;SDS011;60945;48.516;-2.768;2022-11-02T00:43:13;16.08;;;2.55;;
72813;SDS011;60945;48.516;-2.768;2022-11-02T00:45:39;16.55;;;3.22;;
72813;SDS011;60945;48.516;-2.768;2022-11-02T00:48:04;11.88;;;2.05;;
72813;SDS011;60945;48.516;-2.768;2022-11-02T00:50:30;14.82;;;2.70;;
72813;SDS011;60945;48.516;-2.768;2022-11-02T00:52:56;19.00;;;3.63;;
72813;SDS011;60945;48.516;-2.768;2022-11-02T00:55:22;9.60;;;1.98;;
72813;SDS011;60945;48.516;-2.768;2022-11-02T00:57:47;14.25;;;3.33;;
72813;SDS011;60945;48.516;-2.768;2022-11-02T01:00:13;17.17;;;2.30;;
72813;SDS011;60945;48.516;-2.768;2022-11-02T01:02:40;16.83;;;2.72;;
72813;SDS011;60945;48.516;-2.768;2022-11-02T01:05:06;10.98;;;2.22;;
72813;SDS011;60945;48.516;-2.768;2022-11-02T01:07:34;8.65;;;2.08;;
72813;SDS011;60945;48.516;-2.768;2022-11-02T01:10:00;13.65;;;2.25;;
72813;SDS011;60945;48.516;-2.768;2022-11-02T01:12:25;12.38;;;2.53;;
72813;SDS011;60945;48.516;-2.768;2022-11-02T01:14:51;12.00;;;2.83;;
72813;SDS011;60945;48.516;-2.768;2022-11-02T01:17:17;10.73;;;2.65;;
72813;SDS011;60945;48.516;-2.768;2022-11-02T01:19:43;16.08;;;2.85;;
72813;SDS011;60945;48.516;-2.768;2022-11-02T01:22:09;11.10;;;2.13;;
72813;SDS011;60945;48.516;-2.768;2022-11-02T01:24:35;13.68;;;2.42;;
72813;SDS011;60945;48.516;-2.768;2022-11-02T01:27:00;11.45;;;2.67;;
72813;SDS011;60945;48.516;-2.768;2022-11-02T01:29:26;11.43;;;2.20;;
72813;SDS011;60945;48.516;-2.768;2022-11-02T01:31:52;8.07;;;2.05;;
72813;SDS011;60945;48.516;-2.768;2022-11-02T01:34:18;14.45;;;2.47;;
72813;SDS011;60945;48.516;-2.768;2022-11-02T01:36:44;12.68;;;2.58;;
72813;SDS011;60945;48.516;-2.768;2022-11-02T01:39:13;15.48;;;2.88;;
72813;SDS011;60945;48.516;-2.768;2022-11-02T01:41:39;8.50;;;1.95;;
72813;SDS011;60945;48.516;-2.768;2022-11-02T01:47:12;15.32;;;2.58;;
72813;SDS011;60945;48.516;-2.768;2022-11-02T01:49:44;16.85;;;2.53;;
72813;SDS011;60945;48.516;-2.768;2022-11-02T01:52:13;10.82;;;2.13;;
72813;SDS011;60945;48.516;-2.768;2022-11-02T01:55:06;13.10;;;2.50;;
72813;SDS011;60945;48.516;-2.768;2022-11-02T01:57:33;12.90;;;2.92;;
72813;SDS011;60945;48.516;-2.768;2022-11-02T02:00:08;14.20;;;2.85;;
72813;SDS011;60945;48.516;-2.768;2022-11-02T02:02:37;11.05;;;1.83;;
72813;SDS011;60945;48.516;-2.768;2022-11-02T02:05:28;10.88;;;2.15;;
72813;SDS011;60945;48.516;-2.768;2022-11-02T02:07:54;8.95;;;2.60;;
72813;SDS011;60945;48.516;-2.768;2022-11-02T02:10:20;10.57;;;2.55;;
72813;SDS011;60945;48.516;-2.768;2022-11-02T02:12:46;9.75;;;2.38;;
72813;SDS011;60945;48.516;-2.768;2022-11-02T02:15:12;8.38;;;2.00;;
72813;SDS011;60945;48.516;-2.768;2022-11-02T02:17:40;11.60;;;2.00;;
72813;SDS011;60945;48.516;-2.768;2022-11-02T02:26:05;14.63;;;2.40;;
72813;SDS011;60945;48.516;-2.768;2022-11-02T02:31:33;12.52;;;2.72;;
72813;SDS011;60945;48.516;-2.768;2022-11-02T02:34:05;13.43;;;2.25;;
72813;SDS011;60945;48.516;-2.768;2022-11-02T02:37:39;11.38;;;2.00;;
72813;SDS011;60945;48.516;-2.768;2022-11-02T02:42:35;10.18;;;2.05;;
72813;SDS011;60945;48.516;-2.768;2022-11-02T02:45:12;12.43;;;2.50;;
72813;SDS011;60945;48.516;-2.768;2022-11-02T02:47:48;10.38;;;2.38;;
72813;SDS011;60945;48.516;-2.768;2022-11-02T02:50:39;9.65;;;2.22;;
72813;SDS011;60945;48.516;-2.768;2022-11-02T02:53:31;16.38;;;2.25;;
72813;SDS011;60945;48.516;-2.768;2022-11-02T02:56:01;11.80;;;2.20;;
72813;SDS011;60945;48.516;-2.768;2022-11-02T02:58:30;11.82;;;2.42;;
72813;SDS011;60945;48.516;-2.768;2022-11-02T03:01:00;15.13;;;2.50;;
72813;SDS011;60945;48.516;-2.768;2022-11-02T03:03:31;12.63;;;2.65;;
72813;SDS011;60945;48.516;-2.768;2022-11-02T03:11:42;10.15;;;2.20;;
72813;SDS011;60945;48.516;-2.768;2022-11-02T03:17:19;10.75;;;2.40;;
72813;SDS011;60945;48.516;-2.768;2022-11-02T03:20:02;10.20;;;1.92;;
72813;SDS011;60945;48.516;-2.768;2022-11-02T03:22:56;10.52;;;1.95;;
72813;SDS011;60945;48.516;-2.768;2022-11-02T03:25:39;11.38;;;1.98;;
72813;SDS011;60945;48.516;-2.768;2022-11-02T03:33:25;8.82;;;1.58;;
72813;SDS011;60945;48.516;-2.768;2022-11-02T03:36:08;11.27;;;2.17;;
72813;SDS011;60945;48.516;-2.768;2022-11-02T03:38:44;12.27;;;2.33;;
72813;SDS011;60945;48.516;-2.768;2022-11-02T03:41:15;7.95;;;2.17;;
72813;SDS011;60945;48.516;-2.768;2022-11-02T03:43:44;10.50;;;1.90;;
72813;SDS011;60945;48.516;-2.768;2022-11-02T03:46:12;7.78;;;1.58;;
72813;SDS011;60945;48.516;-2.768;2022-11-02T03:48:42;8.70;;;2.38;;
72813;SDS011;60945;48.516;-2.768;2022-11-02T03:51:12;12.13;;;2.13;;
72813;SDS011;60945;48.516;-2.768;2022-11-02T03:54:00;13.65;;;1.77;;
72813;SDS011;60945;48.516;-2.768;2022-11-02T03:56:32;8.85;;;1.42;;
72813;SDS011;60945;48.516;-2.768;2022-11-02T03:59:02;8.93;;;1.95;;
72813;SDS011;60945;48.516;-2.768;2022-11-02T04:01:28;9.93;;;2.53;;
72813;SDS011;60945;48.516;-2.768;2022-11-02T04:03:56;10.88;;;2.67;;
72813;SDS011;60945;48.516;-2.768;2022-11-02T04:06:22;11.40;;;1.75;;
72813;SDS011;60945;48.516;-2.768;2022-11-02T04:08:49;6.30;;;1.92;;
72813;SDS011;60945;48.516;-2.768;2022-11-02T04:11:15;6.43;;;1.40;;
72813;SDS011;60945;48.516;-2.768;2022-11-02T04:13:59;9.00;;;2.10;;
72813;SDS011;60945;48.516;-2.768;2022-11-02T04:16:43;11.32;;;1.95;;
72813;SDS011;60945;48.516;-2.768;2022-11-02T04:19:09;10.00;;;1.75;;
72813;SDS011;60945;48.516;-2.768;2022-11-02T04:21:54;14.57;;;2.88;;
72813;SDS011;60945;48.516;-2.768;2022-11-02T04:24:39;9.35;;;1.65;;
72813;SDS011;60945;48.516;-2.768;2022-11-02T04:27:23;11.35;;;2.35;;
72813;SDS011;60945;48.516;-2.768;2022-11-02T04:29:49;9.90;;;1.88;;
72813;SDS011;60945;48.516;-2.768;2022-11-02T04:32:15;10.70;;;1.67;;
72813;SDS011;60945;48.516;-2.768;2022-11-02T04:35:04;12.13;;;2.03;;
72813;SDS011;60945;48.516;-2.768;2022-11-02T04:37:30;15.38;;;2.67;;
72813;SDS011;60945;48.516;-2.768;2022-11-02T04:40:14;11.00;;;1.85;;
72813;SDS011;60945;48.516;-2.768;2022-11-02T04:42:39;10.63;;;2.05;;
72813;SDS011;60945;48.516;-2.768;2022-11-02T04:45:05;10.00;;;1.90;;
72813;SDS011;60945;48.516;-2.768;2022-11-02T04:47:31;7.32;;;1.92;;
72813;SDS011;60945;48.516;-2.768;2022-11-02T04:49:57;7.47;;;1.80;;
72813;SDS011;60945;48.516;-2.768;2022-11-02T04:52:22;6.32;;;1.38;;
72813;SDS011;60945;48.516;-2.768;2022-11-02T04:54:48;16.13;;;2.60;;
72813;SDS011;60945;48.516;-2.768;2022-11-02T04:57:13;8.13;;;1.80;;
72813;SDS011;60945;48.516;-2.768;2022-11-02T04:59:39;14.32;;;1.60;;
72813;SDS011;60945;48.516;-2.768;2022-11-02T05:02:04;7.68;;;1.30;;
72813;SDS011;60945;48.516;-2.768;2022-11-02T05:04:30;12.18;;;2.15;;
72813;SDS011;60945;48.516;-2.768;2022-11-02T05:06:55;12.07;;;3.05;;
72813;SDS011;60945;48.516;-2.768;2022-11-02T05:09:21;11.52;;;1.80;;
72813;SDS011;60945;48.516;-2.768;2022-11-02T05:11:47;9.27;;;1.85;;
72813;SDS011;60945;48.516;-2.768;2022-11-02T05:14:12;7.43;;;1.80;;
72813;SDS011;60945;48.516;-2.768;2022-11-02T05:16:40;9.35;;;1.90;;
72813;SDS011;60945;48.516;-2.768;2022-11-02T05:19:06;10.68;;;1.75;;
72813;SDS011;60945;48.516;-2.768;2022-11-02T05:21:32;13.38;;;2.40;;
72813;SDS011;60945;48.516;-2.768;2022-11-02T05:23:57;9.15;;;1.70;;
72813;SDS011;60945;48.516;-2.768;2022-11-02T05:26:23;11.40;;;1.75;;
72813;SDS011;60945;48.516;-2.768;2022-11-02T05:28:48;8.70;;;1.85;;
72813;SDS011;60945;48.516;-2.768;2022-11-02T05:31:16;10.30;;;1.88;;
72813;SDS011;60945;48.516;-2.768;2022-11-02T05:33:42;11.25;;;2.80;;
72813;SDS011;60945;48.516;-2.768;2022-11-02T05:36:07;12.80;;;2.15;;
72813;SDS011;60945;48.516;-2.768;2022-11-02T05:38:33;9.60;;;1.90;;
72813;SDS011;60945;48.516;-2.768;2022-11-02T05:40:59;12.30;;;2.10;;
72813;SDS011;60945;48.516;-2.768;2022-11-02T05:43:25;7.55;;;1.80;;
72813;SDS011;60945;48.516;-2.768;2022-11-02T05:45:55;10.95;;;1.65;;
72813;SDS011;60945;48.516;-2.768;2022-11-02T05:48:22;10.30;;;1.98;;
72813;SDS011;60945;48.516;-2.768;2022-11-02T05:50:53;8.80;;;2.10;;
72813;SDS011;60945;48.516;-2.768;2022-11-02T05:53:20;11.25;;;2.40;;
72813;SDS011;60945;48.516;-2.768;2022-11-02T05:55:46;10.45;;;2.10;;
72813;SDS011;60945;48.516;-2.768;2022-11-02T05:58:11;12.00;;;2.08;;
72813;SDS011;60945;48.516;-2.768;2022-11-02T06:00:37;10.43;;;2.50;;
72813;SDS011;60945;48.516;-2.768;2022-11-02T06:03:04;16.20;;;2.35;;
72813;SDS011;60945;48.516;-2.768;2022-11-02T06:05:30;11.57;;;2.28;;
72813;SDS011;60945;48.516;-2.768;2022-11-02T06:07:59;16.52;;;2.38;;
72813;SDS011;60945;48.516;-2.768;2022-11-02T06:10:26;13.35;;;2.50;;
72813;SDS011;60945;48.516;-2.768;2022-11-02T06:12:53;14.70;;;3.03;;
72813;SDS011;60945;48.516;-2.768;2022-11-02T06:15:23;10.23;;;2.25;;
72813;SDS011;60945;48.516;-2.768;2022-11-02T06:17:51;9.93;;;2.45;;
72813;SDS011;60945;48.516;-2.768;2022-11-02T06:20:16;12.73;;;2.65;;
72813;SDS011;60945;48.516;-2.768;2022-11-02T06:22:42;11.75;;;2.75;;
72813;SDS011;60945;48.516;-2.768;2022-11-02T06:25:08;11.48;;;2.22;;
72813;SDS011;60945;48.516;-2.768;2022-11-02T06:27:34;12.85;;;3.17;;
72813;SDS011;60945;48.516;-2.768;2022-11-02T06:30:00;10.93;;;3.00;;
72813;SDS011;60945;48.516;-2.768;2022-11-02T06:32:27;10.85;;;2.50;;
72813;SDS011;60945;48.516;-2.768;2022-11-02T06:34:53;12.05;;;2.28;;
72813;SDS011;60945;48.516;-2.768;2022-11-02T06:37:18;12.95;;;2.03;;
72813;SDS011;60945;48.516;-2.768;2022-11-02T06:39:44;10.07;;;2.13;;
72813;SDS011;60945;48.516;-2.768;2022-11-02T06:42:10;8.80;;;2.05;;
72813;SDS011;60945;48.516;-2.768;2022-11-02T06:44:35;10.38;;;2.30;;
72813;SDS011;60945;48.516;-2.768;2022-11-02T06:47:01;11.25;;;2.50;;
72813;SDS011;60945;48.516;-2.768;2022-11-02T06:49:26;13.73;;;2.88;;
72813;SDS011;60945;48.516;-2.768;2022-11-02T06:51:52;12.68;;;2.53;;
72813;SDS011;60945;48.516;-2.768;2022-11-02T06:54:18;17.02;;;2.50;;
72813;SDS011;60945;48.516;-2.768;2022-11-02T06:56:43;12.85;;;2.33;;
72813;SDS011;60945;48.516;-2.768;2022-11-02T06:59:09;9.35;;;1.70;;
72813;SDS011;60945;48.516;-2.768;2022-11-02T07:01:34;12.90;;;3.17;;
72813;SDS011;60945;48.516;-2.768;2022-11-02T07:04:00;10.95;;;1.98;;
72813;SDS011;60945;48.516;-2.768;2022-11-02T07:06:26;14.45;;;2.55;;
72813;SDS011;60945;48.516;-2.768;2022-11-02T07:08:52;10.77;;;2.80;;
72813;SDS011;60945;48.516;-2.768;2022-11-02T07:11:19;10.65;;;2.70;;
72813;SDS011;60945;48.516;-2.768;2022-11-02T07:13:44;13.05;;;3.67;;
72813;SDS011;60945;48.516;-2.768;2022-11-02T07:16:10;10.88;;;2.63;;
72813;SDS011;60945;48.516;-2.768;2022-11-02T07:18:35;8.38;;;2.00;;
72813;SDS011;60945;48.516;-2.768;2022-11-02T07:21:01;11.80;;;2.45;;
72813;SDS011;60945;48.516;-2.768;2022-11-02T07:23:27;8.63;;;2.80;;
72813;SDS011;60945;48.516;-2.768;2022-11-02T07:25:53;10.60;;;2.35;;
72813;SDS011;60945;48.516;-2.768;2022-11-02T07:28:19;8.77;;;1.92;;
72813;SDS011;60945;48.516;-2.768;2022-11-02T07:30:45;13.18;;;2.85;;
72813;SDS011;60945;48.516;-2.768;2022-11-02T07:33:10;9.50;;;2.38;;
72813;SDS011;60945;48.516;-2.768;2022-11-02T07:35:36;10.40;;;2.95;;
72813;SDS011;60945;48.516;-2.768;2022-11-02T07:38:03;14.38;;;2.85;;
72813;SDS011;60945;48.516;-2.768;2022-11-02T07:40:30;11.23;;;2.95;;
72813;SDS011;60945;48.516;-2.768;2022-11-02T07:43:01;11.88;;;3.10;;
72813;SDS011;60945;48.516;-2.768;2022-11-02T07:45:27;12.57;;;3.08;;
72813;SDS011;60945;48.516;-2.768;2022-11-02T07:47:53;17.90;;;3.05;;
72813;SDS011;60945;48.516;-2.768;2022-11-02T07:50:20;15.38;;;3.50;;
72813;SDS011;60945;48.516;-2.768;2022-11-02T07:52:50;18.48;;;5.53;;
72813;SDS011;60945;48.516;-2.768;2022-11-02T07:55:18;12.30;;;4.90;;
72813;SDS011;60945;48.516;-2.768;2022-11-02T07:57:52;19.45;;;6.15;;
72813;SDS011;60945;48.516;-2.768;2022-11-02T08:00:17;15.75;;;4.50;;
72813;SDS011;60945;48.516;-2.768;2022-11-02T08:02:43;17.23;;;4.60;;
72813;SDS011;60945;48.516;-2.768;2022-11-02T08:05:09;11.77;;;4.35;;
72813;SDS011;60945;48.516;-2.768;2022-11-02T08:07:34;17.42;;;4.68;;
72813;SDS011;60945;48.516;-2.768;2022-11-02T08:10:00;15.85;;;4.30;;
72813;SDS011;60945;48.516;-2.768;2022-11-02T08:12:26;16.20;;;4.68;;
72813;SDS011;60945;48.516;-2.768;2022-11-02T08:14:52;14.95;;;3.75;;
72813;SDS011;60945;48.516;-2.768;2022-11-02T08:17:17;15.32;;;3.88;;
72813;SDS011;60945;48.516;-2.768;2022-11-02T08:19:43;18.27;;;3.53;;
72813;SDS011;60945;48.516;-2.768;2022-11-02T08:22:08;16.30;;;4.43;;
72813;SDS011;60945;48.516;-2.768;2022-11-02T08:24:34;13.85;;;4.40;;
72813;SDS011;60945;48.516;-2.768;2022-11-02T08:26:59;12.57;;;4.65;;
72813;SDS011;60945;48.516;-2.768;2022-11-02T08:29:25;12.30;;;3.72;;
72813;SDS011;60945;48.516;-2.768;2022-11-02T08:31:51;12.10;;;3.50;;
72813;SDS011;60945;48.516;-2.768;2022-11-02T08:34:16;17.88;;;5.88;;
72813;SDS011;60945;48.516;-2.768;2022-11-02T08:36:42;15.35;;;5.07;;
72813;SDS011;60945;48.516;-2.768;2022-11-02T08:39:07;16.42;;;6.72;;
72813;SDS011;60945;48.516;-2.768;2022-11-02T08:41:33;11.63;;;4.18;;
72813;SDS011;60945;48.516;-2.768;2022-11-02T08:43:59;14.48;;;5.57;;
72813;SDS011;60945;48.516;-2.768;2022-11-02T08:46:24;15.32;;;5.05;;
72813;SDS011;60945;48.516;-2.768;2022-11-02T08:48:50;17.63;;;4.70;;
72813;SDS011;60945;48.516;-2.768;2022-11-02T08:51:15;9.82;;;3.03;;
72813;SDS011;60945;48.516;-2.768;2022-11-02T08:53:41;12.15;;;3.83;;
72813;SDS011;60945;48.516;-2.768;2022-11-02T08:56:07;11.07;;;3.25;;
72813;SDS011;60945;48.516;-2.768;2022-11-02T08:58:32;9.82;;;3.15;;
72813;SDS011;60945;48.516;-2.768;2022-11-02T09:00:58;13.23;;;3.25;;
72813;SDS011;60945;48.516;-2.768;2022-11-02T09:03:23;10.32;;;2.60;;
72813;SDS011;60945;48.516;-2.768;2022-11-02T09:05:49;10.43;;;3.30;;
72813;SDS011;60945;48.516;-2.768;2022-11-02T09:08:21;9.80;;;2.65;;
72813;SDS011;60945;48.516;-2.768;2022-11-02T09:10:48;11.43;;;2.90;;
72813;SDS011;60945;48.516;-2.768;2022-11-02T09:13:15;12.55;;;3.17;;
72813;SDS011;60945;48.516;-2.768;2022-11-02T09:15:44;10.20;;;2.92;;
72813;SDS011;60945;48.516;-2.768;2022-11-02T09:18:13;14.35;;;3.95;;
72813;SDS011;60945;48.516;-2.768;2022-11-02T09:20:40;18.70;;;3.13;;
72813;SDS011;60945;48.516;-2.768;2022-11-02T09:23:06;15.18;;;3.50;;
72813;SDS011;60945;48.516;-2.768;2022-11-02T09:25:32;13.20;;;3.08;;
72813;SDS011;60945;48.516;-2.768;2022-11-02T09:27:58;13.85;;;3.22;;
72813;SDS011;60945;48.516;-2.768;2022-11-02T09:30:24;15.73;;;3.00;;
72813;SDS011;60945;48.516;-2.768;2022-11-02T09:32:59;14.93;;;2.88;;
72813;SDS011;60945;48.516;-2.768;2022-11-02T09:35:28;9.75;;;2.97;;
72813;SDS011;60945;48.516;-2.768;2022-11-02T09:37:55;13.43;;;2.45;;
72813;SDS011;60945;48.516;-2.768;2022-11-02T09:40:29;11.48;;;3.60;;
72813;SDS011;60945;48.516;-2.768;2022-11-02T09:45:57;16.13;;;2.97;;
72813;SDS011;60945;48.516;-2.768;2022-11-02T09:48:39;10.70;;;3.22;;
72813;SDS011;60945;48.516;-2.768;2022-11-02T09:53:49;12.80;;;3.33;;
72813;SDS011;60945;48.516;-2.768;2022-11-02T09:56:37;12.15;;;3.42;;
72813;SDS011;60945;48.516;-2.768;2022-11-02T09:59:15;12.35;;;3.20;;
72813;SDS011;60945;48.516;-2.768;2022-11-02T10:04:30;24.58;;;4.95;;
72813;SDS011;60945;48.516;-2.768;2022-11-02T10:09:59;9.43;;;2.38;;
72813;SDS011;60945;48.516;-2.768;2022-11-02T10:15:38;10.32;;;3.55;;
72813;SDS011;60945;48.516;-2.768;2022-11-02T10:18:15;17.55;;;2.90;;
72813;SDS011;60945;48.516;-2.768;2022-11-02T10:21:03;11.45;;;2.50;;
72813;SDS011;60945;48.516;-2.768;2022-11-02T10:23:54;10.77;;;2.70;;
72813;SDS011;60945;48.516;-2.768;2022-11-02T10:26:28;11.45;;;2.92;;
72813;SDS011;60945;48.516;-2.768;2022-11-02T10:28:59;11.77;;;2.50;;
72813;SDS011;60945;48.516;-2.768;2022-11-02T10:31:33;11.55;;;2.30;;
72813;SDS011;60945;48.516;-2.768;2022-11-02T10:34:01;7.45;;;1.77;;
72813;SDS011;60945;48.516;-2.768;2022-11-02T10:39:45;12.25;;;2.58;;
72813;SDS011;60945;48.516;-2.768;2022-11-02T10:53:33;11.23;;;2.10;;
72813;SDS011;60945;48.516;-2.768;2022-11-02T11:01:23;8.10;;;2.30;;
72813;SDS011;60945;48.516;-2.768;2022-11-02T11:03:56;12.57;;;2.53;;
72813;SDS011;60945;48.516;-2.768;2022-11-02T11:06:36;10.77;;;2.78;;
72813;SDS011;60945;48.516;-2.768;2022-11-02T11:09:23;11.90;;;3.47;;
72813;SDS011;60945;48.516;-2.768;2022-11-02T11:12:00;12.45;;;2.33;;
72813;SDS011;60945;48.516;-2.768;2022-11-02T11:14:31;15.05;;;2.70;;
72813;SDS011;60945;48.516;-2.768;2022-11-02T11:17:03;11.73;;;2.47;;
72813;SDS011;60945;48.516;-2.768;2022-11-02T11:19:51;9.63;;;2.78;;
72813;SDS011;60945;48.516;-2.768;2022-11-02T11:24:52;10.45;;;2.78;;
72813;SDS011;60945;48.516;-2.768;2022-11-02T11:27:43;13.35;;;3.65;;
72813;SDS011;60945;48.516;-2.768;2022-11-02T11:30:24;9.30;;;2.78;;
72813;SDS011;60945;48.516;-2.768;2022-11-02T11:32:52;14.82;;;3.00;;
72813;SDS011;60945;48.516;-2.768;2022-11-02T11:35:18;11.13;;;3.03;;
72813;SDS011;60945;48.516;-2.768;2022-11-02T11:37:55;16.77;;;4.32;;
72813;SDS011;60945;48.516;-2.768;2022-11-02T11:40:26;10.45;;;2.90;;
72813;SDS011;60945;48.516;-2.768;2022-11-02T11:42:56;10.88;;;2.40;;
72813;SDS011;60945;48.516;-2.768;2022-11-02T11:45:23;10.98;;;2.70;;
72813;SDS011;60945;48.516;-2.768;2022-11-02T11:50:24;12.38;;;2.97;;
72813;SDS011;60945;48.516;-2.768;2022-11-02T11:55:45;12.40;;;3.08;;
72813;SDS011;60945;48.516;-2.768;2022-11-02T11:58:15;7.07;;;1.90;;
72813;SDS011;60945;48.516;-2.768;2022-11-02T12:03:57;9.00;;;2.08;;
72813;SDS011;60945;48.516;-2.768;2022-11-02T12:14:38;8.85;;;2.10;;
72813;SDS011;60945;48.516;-2.768;2022-11-02T12:20:02;10.18;;;1.73;;
72813;SDS011;60945;48.516;-2.768;2022-11-02T12:25:59;8.95;;;2.35;;
72813;SDS011;60945;48.516;-2.768;2022-11-02T12:47:54;6.72;;;1.75;;
72813;SDS011;60945;48.516;-2.768;2022-11-02T12:53:09;9.43;;;1.90;;
72813;SDS011;60945;48.516;-2.768;2022-11-02T12:55:43;8.70;;;2.00;;
72813;SDS011;60945;48.516;-2.768;2022-11-02T12:58:20;9.15;;;2.33;;
72813;SDS011;60945;48.516;-2.768;2022-11-02T13:00:52;7.95;;;1.90;;
72813;SDS011;60945;48.516;-2.768;2022-11-02T13:05:58;9.13;;;1.83;;
72813;SDS011;60945;48.516;-2.768;2022-11-02T13:08:52;7.68;;;1.85;;
72813;SDS011;60945;48.516;-2.768;2022-11-02T13:11:43;6.63;;;1.85;;
72813;SDS011;60945;48.516;-2.768;2022-11-02T13:14:16;9.15;;;2.50;;
72813;SDS011;60945;48.516;-2.768;2022-11-02T13:16:58;11.13;;;2.17;;
72813;SDS011;60945;48.516;-2.768;2022-11-02T13:19:33;9.13;;;2.30;;
72813;SDS011;60945;48.516;-2.768;2022-11-02T13:22:04;7.25;;;2.63;;
72813;SDS011;60945;48.516;-2.768;2022-11-02T13:24:38;11.35;;;3.30;;
72813;SDS011;60945;48.516;-2.768;2022-11-02T13:27:08;9.40;;;2.22;;
72813;SDS011;60945;48.516;-2.768;2022-11-02T13:30:04;8.82;;;2.10;;
72813;SDS011;60945;48.516;-2.768;2022-11-02T13:32:38;8.63;;;2.20;;
72813;SDS011;60945;48.516;-2.768;2022-11-02T13:35:25;10.52;;;2.60;;
72813;SDS011;60945;48.516;-2.768;2022-11-02T13:40:49;11.57;;;2.33;;
72813;SDS011;60945;48.516;-2.768;2022-11-02T13:43:37;10.25;;;2.72;;
72813;SDS011;60945;48.516;-2.768;2022-11-02T13:49:13;13.52;;;2.97;;
72813;SDS011;60945;48.516;-2.768;2022-11-02T13:51:46;9.20;;;3.08;;
72813;SDS011;60945;48.516;-2.768;2022-11-02T13:54:24;10.23;;;2.47;;
72813;SDS011;60945;48.516;-2.768;2022-11-02T13:56:54;9.68;;;2.22;;
72813;SDS011;60945;48.516;-2.768;2022-11-02T13:59:34;12.65;;;2.22;;
72813;SDS011;60945;48.516;-2.768;2022-11-02T14:02:02;10.35;;;2.53;;
72813;SDS011;60945;48.516;-2.768;2022-11-02T14:04:40;11.18;;;2.05;;
72813;SDS011;60945;48.516;-2.768;2022-11-02T14:07:29;8.90;;;2.60;;
72813;SDS011;60945;48.516;-2.768;2022-11-02T14:10:00;12.02;;;2.70;;
72813;SDS011;60945;48.516;-2.768;2022-11-02T14:30:47;11.65;;;3.17;;
72813;SDS011;60945;48.516;-2.768;2022-11-02T14:35:56;14.32;;;3.75;;
72813;SDS011;60945;48.516;-2.768;2022-11-02T14:38:36;10.90;;;2.92;;
72813;SDS011;60945;48.516;-2.768;2022-11-02T14:47:19;13.27;;;2.55;;
72813;SDS011;60945;48.516;-2.768;2022-11-02T14:49:56;9.70;;;2.47;;
72813;SDS011;60945;48.516;-2.768;2022-11-02T14:52:37;10.23;;;2.00;;
72813;SDS011;60945;48.516;-2.768;2022-11-02T14:55:07;9.95;;;2.40;;
72813;SDS011;60945;48.516;-2.768;2022-11-02T14:57:43;10.93;;;2.65;;
72813;SDS011;60945;48.516;-2.768;2022-11-02T15:03:03;7.60;;;2.50;;
72813;SDS011;60945;48.516;-2.768;2022-11-02T15:15:44;8.95;;;2.15;;
72813;SDS011;60945;48.516;-2.768;2022-11-02T15:29:13;11.93;;;2.60;;
72813;SDS011;60945;48.516;-2.768;2022-11-02T15:32:00;10.60;;;2.47;;
72813;SDS011;60945;48.516;-2.768;2022-11-02T15:34:32;10.80;;;2.58;;
72813;SDS011;60945;48.516;-2.768;2022-11-02T15:37:03;11.68;;;2.67;;
72813;SDS011;60945;48.516;-2.768;2022-11-02T15:39:29;10.45;;;2.70;;
72813;SDS011;60945;48.516;-2.768;2022-11-02T15:44:36;15.65;;;2.60;;
72813;SDS011;60945;48.516;-2.768;2022-11-02T15:54:54;11.60;;;3.13;;
72813;SDS011;60945;48.516;-2.768;2022-11-02T16:00:44;10.05;;;3.00;;
72813;SDS011;60945;48.516;-2.768;2022-11-02T16:03:30;8.45;;;3.10;;
72813;SDS011;60945;48.516;-2.768;2022-11-02T16:05:56;12.27;;;2.83;;
72813;SDS011;60945;48.516;-2.768;2022-11-02T16:08:29;10.23;;;3.20;;
72813;SDS011;60945;48.516;-2.768;2022-11-02T16:11:04;11.00;;;2.90;;
72813;SDS011;60945;48.516;-2.768;2022-11-02T16:13:41;9.85;;;2.42;;
72813;SDS011;60945;48.516;-2.768;2022-11-02T16:16:11;9.02;;;2.58;;
72813;SDS011;60945;48.516;-2.768;2022-11-02T16:18:39;9.57;;;2.83;;
72813;SDS011;60945;48.516;-2.768;2022-11-02T16:21:06;8.63;;;2.53;;
72813;SDS011;60945;48.516;-2.768;2022-11-02T16:23:39;7.40;;;2.50;;
72813;SDS011;60945;48.516;-2.768;2022-11-02T16:26:25;8.05;;;2.00;;
72813;SDS011;60945;48.516;-2.768;2022-11-02T16:28:54;9.98;;;2.50;;
72813;SDS011;60945;48.516;-2.768;2022-11-02T16:31:25;8.77;;;2.83;;
72813;SDS011;60945;48.516;-2.768;2022-11-02T16:33:56;9.57;;;2.58;;
72813;SDS011;60945;48.516;-2.768;2022-11-02T16:36:27;8.48;;;2.67;;
72813;SDS011;60945;48.516;-2.768;2022-11-02T16:41:44;15.55;;;3.42;;
72813;SDS011;60945;48.516;-2.768;2022-11-02T16:44:16;13.30;;;2.47;;
72813;SDS011;60945;48.516;-2.768;2022-11-02T16:49:24;7.88;;;3.17;;
72813;SDS011;60945;48.516;-2.768;2022-11-02T16:54:27;9.65;;;2.85;;
72813;SDS011;60945;48.516;-2.768;2022-11-02T16:57:26;17.98;;;3.83;;
72813;SDS011;60945;48.516;-2.768;2022-11-02T16:59:58;12.48;;;3.08;;
72813;SDS011;60945;48.516;-2.768;2022-11-02T17:04:57;11.25;;;3.95;;
72813;SDS011;60945;48.516;-2.768;2022-11-02T17:07:23;12.07;;;3.00;;
72813;SDS011;60945;48.516;-2.768;2022-11-02T17:09:55;11.70;;;3.47;;
72813;SDS011;60945;48.516;-2.768;2022-11-02T17:12:26;12.13;;;3.03;;
72813;SDS011;60945;48.516;-2.768;2022-11-02T17:15:02;10.38;;;3.60;;
72813;SDS011;60945;48.516;-2.768;2022-11-02T17:17:38;11.05;;;2.42;;
72813;SDS011;60945;48.516;-2.768;2022-11-02T17:22:49;16.48;;;4.35;;
72813;SDS011;60945;48.516;-2.768;2022-11-02T17:25:19;13.27;;;3.50;;
72813;SDS011;60945;48.516;-2.768;2022-11-02T17:27:46;13.73;;;3.33;;
72813;SDS011;60945;48.516;-2.768;2022-11-02T17:32:57;12.63;;;3.75;;
72813;SDS011;60945;48.516;-2.768;2022-11-02T17:35:36;11.90;;;3.85;;
72813;SDS011;60945;48.516;-2.768;2022-11-02T17:38:09;12.35;;;4.75;;
72813;SDS011;60945;48.516;-2.768;2022-11-02T17:40:36;12.05;;;3.13;;
72813;SDS011;60945;48.516;-2.768;2022-11-02T17:43:04;10.57;;;3.60;;
72813;SDS011;60945;48.516;-2.768;2022-11-02T17:45:31;9.05;;;3.25;;
72813;SDS011;60945;48.516;-2.768;2022-11-02T17:47:59;14.65;;;3.53;;
72813;SDS011;60945;48.516;-2.768;2022-11-02T17:50:29;11.57;;;3.42;;
72813;SDS011;60945;48.516;-2.768;2022-11-02T17:52:56;31.15;;;11.65;;
72813;SDS011;60945;48.516;-2.768;2022-11-02T17:55:27;30.80;;;13.65;;
72813;SDS011;60945;48.516;-2.768;2022-11-02T17:57:55;23.48;;;8.52;;
72813;SDS011;60945;48.516;-2.768;2022-11-02T18:00:22;11.88;;;5.30;;
72813;SDS011;60945;48.516;-2.768;2022-11-02T18:02:54;13.75;;;4.53;;
72813;SDS011;60945;48.516;-2.768;2022-11-02T18:05:25;11.10;;;3.80;;